Station: Mccluer Island

  Atmospheric Gas Attenuation - ITU Rec 676-11   --------------- db/100km ---------------
Date Time Temp RH % AH g/m3 Dew Point Wind Direction Speed kph Gust kph Barometer mB Rainfall Since 9am 24GHz 47GHz 76GHz 122GHz 134GHz 241GHz
11 21:50 29.6 72 21.37 24 11 13 1010.7 0 45.5 42.1 83.3 220.6 246.3 856.2
11 21:40 29.6 73 21.67 24.2 11 11 1010.7 0 46.1 42.7 84.7 224.3 250.9 872.2
11 21:30 29.8 73 21.9 24.4 13 15 1010.6 0 46.6 43.0 85.6 226.6 253.8 882.2
11 21:20 29.7 73 21.78 24.3 13 13 1010.5 0 46.3 42.9 85.1 225.4 252.2 876.8
11 21:10 29.9 75 22.63 25 13 15 1010.5 0 48.1 44.4 88.9 235.6 264.7 920.4
11 21:00 30 76 23.05 25.3 13 15 1010.4 0 49.0 45.1 90.8 240.6 271.0 942.0
11 20:50 29.8 73 21.9 24.4 13 13 1010.4 0 46.6 43.0 85.6 226.6 253.7 882.0
11 20:40 29.8 75 22.5 24.9 13 13 1010.2 0 47.8 44.2 88.4 234.2 263.0 914.3
11 20:30 29.6 74 21.96 24.5 13 13 1010.1 0 46.7 43.2 86.1 227.9 255.3 887.4
11 20:20 29.7 75 22.38 24.8 13 13 1009.9 0 47.6 44.0 87.9 232.9 261.4 908.8
11 20:10 29.5 74 21.84 24.4 13 13 1009.7 0 46.5 43.0 85.6 226.6 253.7 881.9
11 20:00 29.5 75 22.14 24.6 9 11 1009.5 0 47.1 43.6 87.0 230.4 258.3 898.0
11 19:50 29.4 74 21.73 24.3 7 9 1009.4 0 46.3 42.9 85.1 225.5 252.3 877.0
11 19:40 29.5 75 22.14 24.6 7 9 1009.3 0 47.1 43.6 87.0 230.3 258.3 897.9
11 19:30 29.6 74 21.96 24.5 6 7 1009.1 0 46.7 43.2 86.0 227.7 255.1 886.9
11 19:20 29.5 74 21.84 24.4 6 7 1008.9 0 46.5 43.0 85.5 226.5 253.6 881.4
11 19:10 29.5 74 21.84 24.4 6 7 1008.8 0 46.5 43.0 85.5 226.5 253.5 881.4
11 19:00 29.5 72 21.25 24.1 6 7 1008.7 0 45.3 41.9 82.7 219.1 244.5 849.8
11 18:50 29.5 72 21.25 24.1 7 9 1008.8 0 45.3 41.9 82.7 219.1 244.5 849.9
11 18:40 29.5 72 21.25 23.9 7 7 1008.8 0 45.3 41.9 82.7 219.1 244.5 849.9
11 18:30 29.6 71 21.07 23.8 7 9 1008.8 0 44.9 41.5 81.8 216.5 241.4 839.2
11 18:20 29.8 71 21.3 24 6 7 1008.7 0 45.3 41.8 82.6 218.8 244.2 849.1
11 18:10 29.9 70 21.12 23.8 6 6 1008.6 0 44.9 41.4 81.7 216.3 241.2 838.5
11 18:00 29.9 70 21.12 23.8 6 7 1008.5 0 44.9 41.4 81.7 216.3 241.2 838.4
11 17:50 30.2 70 21.46 24.1 6 7 1008.4 0 45.6 41.9 82.9 219.6 245.3 852.9
11 17:40 30.1 70 21.35 24 6 7 1008.3 0 45.4 41.8 82.5 218.5 244.0 848.2
11 17:30 30.2 67 20.54 23.6 6 7 1008.2 0 43.7 40.2 78.7 208.3 231.5 804.8
11 17:20 30.5 68 21.19 23.9 6 7 1008.1 0 45.0 41.3 81.3 215.4 240.2 835.2
11 17:10 30.5 67 20.88 23.7 6 6 1008.1 0 44.4 40.7 79.9 211.6 235.6 819.1
11 17:00 30.8 67 21.22 24 6 7 1008 0 45.0 41.2 81.1 214.9 239.7 833.5
11 16:50 30.8 66 20.9 23.7 6 6 1007.9 0 44.4 40.6 79.7 211.0 234.9 816.8
11 16:40 30.9 68 21.65 24.3 6 7 1007.9 0 45.9 41.9 83.0 219.8 245.8 854.7
11 16:30 31 66 21.13 24.1 6 9 1007.8 0 44.8 40.9 80.5 213.2 237.7 826.5
11 16:20 31.5 68 22.36 24.9 7 7 1007.8 0 47.4 42.9 85.6 226.8 254.6 885.2
11 16:10 31.1 68 21.88 24.5 7 7 1007.8 0 46.4 42.2 83.8 222.1 248.6 864.5
11 16:00 30.7 69 21.73 24.4 7 7 1007.7 0 46.1 42.1 83.6 221.4 247.7 861.1
11 15:50 30.6 69 21.62 24.3 7 7 1007.8 0 45.9 42.0 83.2 220.3 246.3 856.5
11 15:40 30.9 68 21.65 24.3 9 9 1007.9 0 45.9 41.9 83.0 219.8 245.8 854.7
11 15:30 30.8 71 22.48 24.9 9 11 1007.9 0 47.7 43.5 87.0 230.4 258.8 899.9
11 15:20 30.9 68 21.65 24.5 9 9 1007.9 0 45.9 41.9 83.0 219.8 245.8 854.7
11 15:10 31.5 67 22.03 24.6 7 7 1008 0 46.7 42.3 84.1 222.8 249.6 867.9
11 15:00 31.1 66 21.24 24 9 9 1008.1 0 45.0 41.0 80.9 214.3 239.1 831.3
11 14:50 31.2 66 21.35 24.3 7 9 1008.2 0 45.3 41.2 81.3 215.3 240.4 835.9
11 14:40 31.2 66 21.35 24.1 7 7 1008.3 0 45.3 41.2 81.3 215.4 240.4 836.0
11 14:30 31.2 66 21.35 24.3 7 9 1008.5 0 45.3 41.2 81.3 215.4 240.4 836.1
11 14:20 30.9 68 21.65 24.3 7 9 1008.6 0 45.9 41.9 83.1 219.9 245.9 855.1
11 14:10 31.1 68 21.88 24.5 9 9 1008.7 0 46.4 42.3 83.9 222.2 248.8 865.0
11 14:00 30.9 68 21.65 24.3 9 11 1008.7 0 45.9 41.9 83.1 220.0 246.0 855.2
11 13:50 31.4 69 22.57 25 9 11 1008.8 0 47.8 43.4 86.8 229.9 258.3 898.1
11 13:40 30.5 67 20.88 23.7 7 9 1009 0 44.4 40.7 80.0 211.7 235.7 819.6
11 13:30 31.1 68 21.88 24.7 9 13 1009.2 0 46.4 42.3 83.9 222.3 248.8 865.3
11 13:20 31 66 21.13 23.9 9 11 1009.3 0 44.8 40.9 80.6 213.4 237.9 827.3
11 13:10 31.1 64 20.6 23.7 11 11 1009.5 0 43.7 39.9 78.1 206.8 229.8 799.1
11 13:00 31 66 21.13 23.9 9 15 1009.6 0 44.8 41.0 80.6 213.5 238.0 827.5
11 12:50 30.8 64 20.27 23.2 7 9 1009.8 0 43.0 39.5 76.9 203.7 225.9 785.6
11 12:40 31.3 64 20.82 23.9 9 9 1009.9 0 44.1 40.3 78.9 208.9 232.5 808.5
11 12:30 30.9 66 21.01 23.8 7 11 1010.1 0 44.6 40.8 80.2 212.4 236.6 822.6
11 12:20 31.1 68 21.88 24.5 9 11 1010.1 0 46.4 42.3 84.0 222.4 249.0 865.8
11 12:10 31.2 66 21.35 24.3 7 9 1010.3 0 45.3 41.3 81.5 215.7 240.7 837.1
11 12:00 30.6 66 20.68 23.5 7 9 1010.4 0 43.9 40.4 79.0 209.2 232.7 809.0
11 11:50 30.6 66 20.68 23.5 7 7 1010.6 0 43.9 40.4 79.1 209.3 232.7 809.1
11 11:40 30.6 67 20.99 23.8 6 6 1010.8 0 44.6 40.9 80.5 213.1 237.3 825.2
11 11:30 30.3 68 20.96 23.7 7 9 1010.9 0 44.5 41.0 80.7 213.6 237.9 827.0
11 11:20 30.4 66 20.46 23.3 7 9 1010.9 0 43.5 40.1 78.3 207.2 230.1 800.0
11 11:10 30.6 66 20.68 23.5 7 9 1011 0 43.9 40.4 79.1 209.3 232.8 809.3
11 11:00 30.4 66 20.46 23.3 6 9 1011.1 0 43.5 40.1 78.3 207.2 230.1 800.1
11 10:50 30.5 65 20.25 23.2 7 9 1011.1 0 43.0 39.7 77.2 204.5 226.7 788.3
11 10:40 31.1 64 20.6 23.5 7 9 1011.3 0 43.7 40.0 78.2 207.1 230.1 800.1
11 10:30 31.1 64 20.6 23.5 4 6 1011.3 0 43.7 40.0 78.2 207.1 230.1 800.1
11 10:20 31.1 64 20.6 23.7 4 6 1011.4 0 43.7 40.0 78.2 207.1 230.1 800.1
11 10:10 30.9 67 21.33 24.1 4 6 1011.3 0 45.2 41.4 81.8 216.5 241.6 839.9
11 10:00 30.5 67 20.88 23.7 7 9 1011.3 0 44.3 40.8 80.1 212.1 236.1 820.9
11 09:50 30.7 68 21.42 24.1 7 9 1011.3 0 45.4 41.7 82.4 218.1 243.6 846.8
11 09:40 30.5 68 21.19 23.9 7 7 1011.4 0 45.0 41.4 81.5 215.9 240.8 837.1
11 09:30 30.4 66 20.46 23.3 6 7 1011.3 0 43.5 40.1 78.3 207.3 230.2 800.2
11 09:20 30.3 65 20.04 23.2 4 6 1011.3 0 42.6 39.4 76.5 202.5 224.3 779.7
11 09:10 30.1 67 20.43 23.5 4 6 1011.3 0 43.4 40.2 78.5 207.7 230.6 801.8
11 09:00 29.9 69 20.82 23.6 6 7 1011.2 0 44.3 41.0 80.5 213.0 237.1 824.2
11 08:50 29.7 68 20.29 23.2 6 6 1011.3 0 43.2 40.1 78.2 207.1 229.8 798.8
11 08:40 29.8 68 20.4 23.3 4 6 1011.4 0 43.4 40.3 78.7 208.2 231.1 803.5
11 08:30 30.4 70 21.7 24.3 0 6 1011.3 0 46.1 42.4 84.0 222.5 248.8 865.0
11 08:20 30.1 71 21.65 24.3 0 0 1011.2 0 46.0 42.4 84.1 222.7 249.0 865.7
11 08:10 30 71 21.53 24.2 0 0 1011.1 0 45.8 42.3 83.6 221.5 247.5 860.4
11 08:00 29.7 74 22.08 24.6 0 0 1011.1 0 47.0 43.5 86.6 229.3 257.0 893.3
11 07:50 28.5 74 20.69 23.4 0 0 1011 0 44.2 41.4 81.3 215.3 239.5 832.5
11 07:40 28 79 21.49 24 0 0 1010.9 0 45.9 43.2 85.7 226.9 253.6 881.2
11 07:30 27.6 83 22.08 24.4 0 0 1010.9 0 47.2 44.6 89.0 235.7 264.3 918.5
11 07:20 27 83 21.36 23.9 0 0 1010.8 0 45.8 43.5 86.2 228.2 254.9 885.8
11 07:10 26.5 84 21.03 23.6 0 0 1010.7 0 45.1 43.1 85.2 225.4 251.4 873.4
11 07:00 26.6 85 21.4 23.9 0 0 1010.6 0 45.9 43.8 86.8 229.9 256.9 892.6
11 06:50 26.2 86 21.17 23.7 0 0 1010.4 0 45.5 43.5 86.2 228.1 254.6 884.5
11 06:40 26.1 85 20.81 23.4 0 0 1010.2 0 44.7 42.8 84.5 223.7 249.1 865.6
11 06:30 26.7 82 20.76 23.4 0 4 1010.1 0 44.5 42.4 83.6 221.3 246.3 855.9
11 06:20 26.8 80 20.36 23.1 4 6 1010 0 43.7 41.6 81.5 215.8 239.7 833.0
11 06:10 27.5 79 20.9 23.5 6 7 1009.9 0 44.7 42.3 83.4 220.7 245.8 854.3
11 06:00 27.7 79 21.13 23.7 6 7 1009.8 0 45.2 42.6 84.2 223.0 248.7 864.4
11 05:50 27.3 80 20.93 23.5 6 7 1009.7 0 44.8 42.4 83.7 221.6 246.9 858.1
11 05:40 26.7 82 20.76 23.4 0 0 1009.6 0 44.5 42.4 83.5 221.2 246.2 855.6
11 04:50 27.5 81 21.43 23.9 0 0 1009.3 0 45.9 43.3 85.9 227.3 254.0 882.8
11 04:40 27.2 80 20.82 23.4 0 0 1009.2 0 44.6 42.3 83.3 220.4 245.5 853.0

Last Refresh: 11-Apr-2021 22:07:26

Bureau of Meteorology